createdAt,value
2023-01-08T00:01:14.606Z,74.88
2023-01-08T00:03:41.851Z,78.84
2023-01-08T00:06:12.552Z,76.66
2023-01-08T00:08:39.896Z,84.74
2023-01-08T00:11:07.140Z,84.54
2023-01-08T00:13:34.520Z,82.59
2023-01-08T00:16:10.451Z,80.05
2023-01-08T00:18:37.434Z,84.42
2023-01-08T00:21:04.606Z,83.30
2023-01-08T00:23:31.531Z,78.59
2023-01-08T00:26:02.239Z,80.34
2023-01-08T00:28:29.503Z,84.52
2023-01-08T00:30:56.503Z,81.51
2023-01-08T00:33:23.378Z,81.26
2023-01-08T00:35:50.365Z,75.43
2023-01-08T00:38:17.266Z,70.27
2023-01-08T00:40:44.203Z,71.67
2023-01-08T00:43:11.040Z,75.65
2023-01-08T00:45:37.720Z,74.61
2023-01-08T00:48:04.838Z,75.92
2023-01-08T00:50:31.711Z,75.27
2023-01-08T00:52:58.618Z,72.44
2023-01-08T00:55:25.544Z,72.63
2023-01-08T00:57:52.388Z,71.58
2023-01-08T01:00:19.068Z,71.25
2023-01-08T01:02:45.984Z,63.71
2023-01-08T01:05:15.626Z,66.63
2023-01-08T01:07:43.655Z,66.94
2023-01-08T01:10:12.139Z,71.06
2023-01-08T01:12:39.396Z,66.98
2023-01-08T01:15:11.230Z,69.05
2023-01-08T01:17:42.380Z,72.61
2023-01-08T01:20:11.778Z,69.72
2023-01-08T01:22:39.143Z,73.13
2023-01-08T01:25:06.860Z,74.87
2023-01-08T01:27:33.811Z,73.23
2023-01-08T01:30:00.761Z,71.23
2023-01-08T01:32:27.606Z,74.45
2023-01-08T01:34:54.275Z,75.43
2023-01-08T01:37:21.109Z,78.40
2023-01-08T01:39:47.827Z,77.23
2023-01-08T01:42:35.785Z,77.08
2023-01-08T01:45:11.624Z,77.15
2023-01-08T01:47:40.440Z,74.87
2023-01-08T01:50:22.213Z,71.69
2023-01-08T01:53:15.375Z,78.21
2023-01-08T01:55:44.048Z,80.10
2023-01-08T01:58:10.823Z,77.23
2023-01-08T02:00:37.567Z,77.54
2023-01-08T02:03:06.186Z,80.85
2023-01-08T02:05:49.723Z,76.61
2023-01-08T02:08:48.388Z,76.13
2023-01-08T02:11:25.076Z,76.17
2023-01-08T02:14:03.177Z,76.08
2023-01-08T02:16:37.716Z,74.79
2023-01-08T02:19:38.841Z,76.49
2023-01-08T02:22:24.067Z,74.99
2023-01-08T02:24:53.895Z,71.29
2023-01-08T02:27:21.598Z,73.68
2023-01-08T02:29:48.525Z,75.84
2023-01-08T02:32:15.577Z,77.84
2023-01-08T02:34:42.444Z,76.57
2023-01-08T02:37:10.112Z,75.18
2023-01-08T02:39:57.250Z,85.54
2023-01-08T02:42:36.300Z,76.84
2023-01-08T02:45:06.148Z,76.83
2023-01-08T02:47:36.701Z,74.29
2023-01-08T02:50:14.904Z,75.99
2023-01-08T02:52:48.155Z,74.03
2023-01-08T02:55:16.354Z,73.48
2023-01-08T02:57:43.268Z,70.59
2023-01-08T03:00:10.901Z,73.22
2023-01-08T03:02:38.766Z,74.56
2023-01-08T03:05:13.820Z,76.98
2023-01-08T03:07:40.827Z,73.17
2023-01-08T03:10:08.945Z,76.79
2023-01-08T03:12:50.921Z,74.62
2023-01-08T03:15:25.177Z,80.91
2023-01-08T03:17:55.525Z,83.34
2023-01-08T03:20:23.876Z,83.07
2023-01-08T03:22:54.681Z,76.87
2023-01-08T03:25:23.603Z,83.05
2023-01-08T03:27:55.229Z,80.11
2023-01-08T03:30:22.867Z,78.77
2023-01-08T03:32:50.597Z,80.71
2023-01-08T03:35:21.217Z,83.87
2023-01-08T03:37:54.537Z,79.13
2023-01-08T03:40:25.381Z,77.98
2023-01-08T03:42:52.357Z,77.70
2023-01-08T03:45:20.147Z,75.99
2023-01-08T03:47:47.758Z,76.67
2023-01-08T03:50:22.065Z,76.06
2023-01-08T03:52:48.924Z,76.52
2023-01-08T03:55:15.620Z,78.89
2023-01-08T03:57:42.499Z,77.79
2023-01-08T04:00:09.938Z,78.85
2023-01-08T04:02:36.912Z,74.69
2023-01-08T04:05:03.981Z,73.84
2023-01-08T04:07:31.168Z,75.26
2023-01-08T04:09:58.048Z,75.39
2023-01-08T04:12:24.932Z,74.82
2023-01-08T04:14:51.766Z,77.13
2023-01-08T04:17:18.483Z,77.17
2023-01-08T04:19:45.348Z,76.76
2023-01-08T04:22:12.383Z,74.85
2023-01-08T04:24:39.219Z,74.37
2023-01-08T04:27:05.936Z,72.88
2023-01-08T04:29:32.958Z,74.47
2023-01-08T04:32:00.545Z,70.92
2023-01-08T04:34:27.420Z,71.85
2023-01-08T04:36:54.262Z,71.94
2023-01-08T04:39:20.952Z,73.09
2023-01-08T04:41:47.834Z,74.37
2023-01-08T04:44:14.677Z,74.61
2023-01-08T04:46:41.380Z,73.33
2023-01-08T04:49:08.303Z,74.37
2023-01-08T04:51:35.180Z,78.00
2023-01-08T04:54:02.100Z,79.07
2023-01-08T04:56:28.990Z,78.45
2023-01-08T04:58:55.966Z,74.54
2023-01-08T05:01:25.179Z,77.30
2023-01-08T05:04:05.395Z,76.00
2023-01-08T05:06:32.741Z,75.69
2023-01-08T05:08:59.659Z,74.59
2023-01-08T05:11:26.685Z,72.70
2023-01-08T05:13:53.942Z,76.04
2023-01-08T05:16:21.510Z,75.22
2023-01-08T05:18:48.404Z,79.34
2023-01-08T05:21:15.328Z,76.30
2023-01-08T05:23:50.444Z,83.67
2023-01-08T05:26:17.521Z,81.72
2023-01-08T05:28:44.488Z,82.05
2023-01-08T05:31:11.981Z,81.14
2023-01-08T05:33:39.193Z,82.19
2023-01-08T05:36:10.501Z,80.18
2023-01-08T05:38:37.629Z,80.78
2023-01-08T05:41:05.187Z,84.27
2023-01-08T05:43:32.153Z,78.44
2023-01-08T05:46:00.098Z,78.87
2023-01-08T05:48:30.894Z,80.63
2023-01-08T05:50:57.743Z,78.47
2023-01-08T05:53:24.411Z,78.22
2023-01-08T05:55:51.455Z,88.08
2023-01-08T05:58:19.440Z,83.25
2023-01-08T06:00:46.770Z,82.65
2023-01-08T06:03:13.758Z,83.82
2023-01-08T06:05:40.753Z,80.56
2023-01-08T06:08:08.757Z,84.23
2023-01-08T06:10:38.302Z,84.76
2023-01-08T06:13:09.596Z,83.79
2023-01-08T06:15:39.844Z,84.17
2023-01-08T06:18:06.882Z,84.17
2023-01-08T06:20:33.773Z,82.73
2023-01-08T06:23:00.665Z,83.05
2023-01-08T06:25:28.633Z,84.91
2023-01-08T06:27:55.859Z,82.80
2023-01-08T06:30:22.841Z,81.34
2023-01-08T06:32:49.737Z,84.85
2023-01-08T06:35:16.555Z,82.39
2023-01-08T06:37:43.199Z,84.23
2023-01-08T06:40:10.639Z,87.53
2023-01-08T06:42:37.496Z,82.79
2023-01-08T06:45:04.327Z,87.48
2023-01-08T06:47:31.174Z,85.32
2023-01-08T06:49:59.357Z,84.96
2023-01-08T06:52:26.286Z,84.11
2023-01-08T06:54:53.135Z,80.90
2023-01-08T06:57:19.825Z,77.38
2023-01-08T06:59:46.739Z,77.12
2023-01-08T07:02:14.459Z,80.46
2023-01-08T07:04:41.372Z,77.24
2023-01-08T07:07:08.345Z,82.25
2023-01-08T07:09:35.674Z,79.37
2023-01-08T07:12:02.554Z,79.06
2023-01-08T07:14:29.459Z,76.55
2023-01-08T07:16:56.280Z,75.61
2023-01-08T07:19:22.930Z,75.66
2023-01-08T07:21:49.786Z,76.24
2023-01-08T07:24:16.640Z,79.61
2023-01-08T07:26:43.338Z,82.32
2023-01-08T07:29:10.193Z,84.46
2023-01-08T07:31:36.918Z,84.67
2023-01-08T07:34:03.832Z,89.45
2023-01-08T07:36:30.661Z,85.30
2023-01-08T07:38:57.322Z,81.63
2023-01-08T07:41:24.215Z,79.03
2023-01-08T07:43:51.078Z,78.41
2023-01-08T07:46:17.999Z,77.68
2023-01-08T07:48:44.947Z,74.84
2023-01-08T07:51:11.943Z,75.09
2023-01-08T07:53:38.887Z,74.98
2023-01-08T07:56:07.907Z,76.37
2023-01-08T07:58:35.046Z,76.25
2023-01-08T08:01:02.250Z,74.00
2023-01-08T08:03:29.143Z,76.46
2023-01-08T08:05:56.083Z,74.21
2023-01-08T08:08:22.949Z,77.34
2023-01-08T08:10:49.829Z,78.24
2023-01-08T08:13:16.707Z,79.10
2023-01-08T08:15:43.733Z,86.25
2023-01-08T08:18:11.204Z,83.27
2023-01-08T08:20:38.496Z,78.22
2023-01-08T08:23:10.006Z,81.17
2023-01-08T08:25:37.508Z,80.46
2023-01-08T08:28:04.918Z,80.74
2023-01-08T08:30:33.127Z,80.39
2023-01-08T08:33:01.615Z,79.86
2023-01-08T08:35:29.088Z,80.43
2023-01-08T08:37:56.485Z,77.05
2023-01-08T08:40:24.050Z,76.93
2023-01-08T08:42:58.504Z,74.19
2023-01-08T08:45:25.864Z,72.53
2023-01-08T08:47:52.879Z,68.47
2023-01-08T08:50:20.249Z,66.25
2023-01-08T08:52:49.018Z,64.83
2023-01-08T08:55:17.544Z,64.10
2023-01-08T08:57:46.211Z,63.99
2023-01-08T09:00:13.898Z,60.53
2023-01-08T09:02:40.966Z,60.47
2023-01-08T09:05:08.086Z,60.92
2023-01-08T09:07:34.996Z,60.63
2023-01-08T09:10:01.877Z,61.05
2023-01-08T09:12:28.776Z,61.45
2023-01-08T09:14:57.301Z,71.23
2023-01-08T09:17:26.065Z,65.22
2023-01-08T09:19:53.033Z,66.60
2023-01-08T09:22:20.380Z,65.17
2023-01-08T09:24:47.348Z,62.00
2023-01-08T09:27:14.765Z,61.16
2023-01-08T09:29:41.658Z,59.22
2023-01-08T09:32:09.065Z,60.12
2023-01-08T09:34:38.921Z,54.12
2023-01-08T09:37:06.199Z,49.35
2023-01-08T09:39:33.845Z,49.63
2023-01-08T09:42:05.442Z,51.98
2023-01-08T09:44:37.254Z,48.57
2023-01-08T09:47:05.060Z,46.03
2023-01-08T09:49:43.726Z,47.68
2023-01-08T09:52:12.834Z,47.46
2023-01-08T09:54:40.915Z,48.34
2023-01-08T09:57:22.030Z,48.80
2023-01-08T09:59:49.716Z,49.02
2023-01-08T10:02:20.584Z,47.44
2023-01-08T10:04:57.258Z,49.83
2023-01-08T10:07:25.839Z,49.61
2023-01-08T10:09:53.218Z,50.80
2023-01-08T10:12:30.194Z,52.27
2023-01-08T10:15:03.013Z,56.79
2023-01-08T10:17:41.207Z,55.07
2023-01-08T10:20:19.875Z,60.00
2023-01-08T10:22:49.939Z,62.73
2023-01-08T10:25:20.293Z,64.49
2023-01-08T10:28:02.465Z,69.05
2023-01-08T10:30:35.789Z,67.67
2023-01-08T10:33:05.439Z,69.15
2023-01-08T10:35:35.799Z,68.41
2023-01-08T10:38:02.789Z,67.26
2023-01-08T10:40:44.898Z,69.68
2023-01-08T10:43:24.677Z,68.60
2023-01-08T10:46:04.913Z,69.32
2023-01-08T10:48:38.139Z,69.48
2023-01-08T10:51:25.583Z,68.12
2023-01-08T10:53:53.829Z,69.91
2023-01-08T10:56:25.773Z,68.13
2023-01-08T10:58:53.394Z,72.46
2023-01-08T11:01:31.481Z,71.77
2023-01-08T11:04:03.480Z,74.23
2023-01-08T11:06:32.708Z,75.91
2023-01-08T11:09:02.044Z,74.28
2023-01-08T11:11:37.037Z,72.30
2023-01-08T11:14:06.109Z,72.67
2023-01-08T11:16:38.310Z,74.63
2023-01-08T11:19:06.134Z,76.03
2023-01-08T11:21:33.696Z,71.92
2023-01-08T11:24:23.490Z,71.27
2023-01-08T11:27:04.257Z,70.26
2023-01-08T11:29:57.663Z,73.62
2023-01-08T11:32:27.541Z,72.22
2023-01-08T11:34:54.456Z,70.11
2023-01-08T11:37:29.620Z,70.36
2023-01-08T11:39:57.014Z,67.05
2023-01-08T11:42:42.331Z,68.17
2023-01-08T11:45:21.944Z,67.58
2023-01-08T11:48:19.860Z,68.58
2023-01-08T11:50:46.631Z,68.92
2023-01-08T11:53:36.617Z,68.04
2023-01-08T11:56:10.947Z,67.30
2023-01-08T11:58:59.108Z,65.06
2023-01-08T12:01:50.935Z,65.93
2023-01-08T12:04:33.165Z,66.19
2023-01-08T12:07:19.009Z,68.37
2023-01-08T12:09:50.536Z,67.71
2023-01-08T12:12:46.637Z,65.95
2023-01-08T12:15:37.995Z,64.76
2023-01-08T12:18:13.738Z,66.17
2023-01-08T12:21:04.085Z,67.17
2023-01-08T12:23:49.119Z,68.37
2023-01-08T12:26:20.508Z,64.68
2023-01-08T12:29:35.579Z,66.02
2023-01-08T12:32:20.067Z,64.24
2023-01-08T12:35:01.026Z,65.41
2023-01-08T12:37:34.367Z,64.94
2023-01-08T12:40:29.370Z,64.42
2023-01-08T12:43:03.051Z,65.24
2023-01-08T12:45:33.207Z,63.80
2023-01-08T12:48:19.885Z,64.42
2023-01-08T12:51:10.144Z,62.40
2023-01-08T12:53:59.940Z,64.21
2023-01-08T12:56:38.545Z,63.27
2023-01-08T12:59:33.787Z,62.33
2023-01-08T13:02:01.605Z,62.40
2023-01-08T13:04:28.657Z,62.81
2023-01-08T13:07:03.910Z,63.49
2023-01-08T13:09:31.887Z,64.69
2023-01-08T13:12:00.281Z,64.12
2023-01-08T13:14:27.823Z,65.62
2023-01-08T13:17:16.897Z,65.71
2023-01-08T13:19:45.781Z,64.43
2023-01-08T13:22:25.334Z,64.43
2023-01-08T13:24:52.310Z,64.80
2023-01-08T13:27:19.132Z,63.51
2023-01-08T13:29:46.639Z,64.36
2023-01-08T13:32:42.284Z,65.75
2023-01-08T13:35:12.004Z,65.33
2023-01-08T13:37:38.860Z,64.76
2023-01-08T13:40:25.993Z,63.69
2023-01-08T13:42:52.830Z,63.90
2023-01-08T13:45:19.564Z,62.98
2023-01-08T13:47:46.970Z,61.83
2023-01-08T13:50:22.340Z,60.88
2023-01-08T13:52:59.274Z,62.17
2023-01-08T13:55:32.641Z,63.20
2023-01-08T13:58:02.273Z,62.98
2023-01-08T14:00:31.969Z,62.48
2023-01-08T14:02:58.897Z,61.97
2023-01-08T14:05:29.868Z,60.44
2023-01-08T14:07:57.900Z,59.75
2023-01-08T14:10:25.283Z,61.34
2023-01-08T14:12:52.380Z,58.70
2023-01-08T14:15:26.985Z,59.52
2023-01-08T14:17:54.570Z,59.74
2023-01-08T14:20:34.587Z,58.89
2023-01-08T14:23:02.582Z,58.69
2023-01-08T14:25:29.671Z,59.00
2023-01-08T14:28:02.687Z,58.86
2023-01-08T14:30:30.153Z,59.15
2023-01-08T14:32:58.175Z,56.57
2023-01-08T14:35:34.715Z,57.30
2023-01-08T14:38:02.596Z,58.15
2023-01-08T14:40:38.398Z,57.44
2023-01-08T14:43:11.138Z,58.84
2023-01-08T14:45:39.019Z,58.61
2023-01-08T14:48:13.936Z,58.21
2023-01-08T14:50:43.149Z,57.58
2023-01-08T14:53:38.093Z,57.47
2023-01-08T14:56:06.089Z,57.16
2023-01-08T14:58:38.732Z,58.28
2023-01-08T15:01:15.640Z,56.74
2023-01-08T15:03:44.610Z,56.91
2023-01-08T15:06:11.899Z,56.77
2023-01-08T15:08:40.950Z,56.26
2023-01-08T15:11:25.005Z,55.87
2023-01-08T15:13:53.404Z,55.73
2023-01-08T15:16:32.112Z,58.29
2023-01-08T15:19:15.101Z,57.97
2023-01-08T15:21:49.479Z,57.35
2023-01-08T15:24:31.461Z,58.49
2023-01-08T15:26:59.142Z,58.15
2023-01-08T15:29:34.467Z,58.70
2023-01-08T15:32:19.476Z,56.91
2023-01-08T15:34:46.892Z,57.26
2023-01-08T15:37:15.159Z,56.08
2023-01-08T15:39:42.768Z,55.36
2023-01-08T15:42:48.789Z,54.43
2023-01-08T15:45:19.222Z,54.25
2023-01-08T15:47:46.450Z,55.24
2023-01-08T15:50:13.710Z,55.75
2023-01-08T15:52:42.442Z,55.06
2023-01-08T15:55:18.259Z,58.29
2023-01-08T15:57:45.313Z,58.31
2023-01-08T16:00:13.665Z,60.79
2023-01-08T16:02:46.875Z,61.20
2023-01-08T16:05:15.138Z,61.13
2023-01-08T16:07:42.021Z,62.13
2023-01-08T16:10:09.461Z,61.51
2023-01-08T16:12:36.524Z,61.77
2023-01-08T16:15:03.563Z,61.40
2023-01-08T16:17:30.464Z,62.45
2023-01-08T16:19:57.522Z,61.83
2023-01-08T16:22:24.362Z,62.00
2023-01-08T16:24:51.209Z,60.46
2023-01-08T16:27:18.155Z,60.77
2023-01-08T16:29:45.038Z,61.30
2023-01-08T16:32:11.881Z,62.23
2023-01-08T16:34:38.773Z,63.22
2023-01-08T16:37:05.660Z,62.39
2023-01-08T16:39:32.600Z,62.34
2023-01-08T16:41:59.425Z,62.27
2023-01-08T16:44:32.484Z,62.86
2023-01-08T16:47:01.481Z,65.16
2023-01-08T16:49:28.709Z,63.34
2023-01-08T16:51:55.616Z,62.83
2023-01-08T16:54:22.878Z,61.94
2023-01-08T16:56:49.785Z,61.13
2023-01-08T16:59:23.357Z,61.39
2023-01-08T17:01:51.969Z,62.73
2023-01-08T17:04:19.089Z,62.42
2023-01-08T17:06:47.069Z,62.40
2023-01-08T17:09:14.910Z,62.18
2023-01-08T17:11:42.225Z,64.25
2023-01-08T17:14:09.585Z,66.17
2023-01-08T17:16:36.553Z,66.02
2023-01-08T17:19:03.546Z,65.29
2023-01-08T17:21:30.542Z,65.28
2023-01-08T17:23:57.392Z,66.44
2023-01-08T17:26:24.302Z,65.89
2023-01-08T17:28:51.437Z,66.37
2023-01-08T17:31:19.359Z,66.12
2023-01-08T17:33:50.435Z,65.84
2023-01-08T17:36:22.264Z,66.41
2023-01-08T17:38:53.554Z,65.80
2023-01-08T17:41:40.604Z,65.90
2023-01-08T17:44:09.818Z,64.64
2023-01-08T17:46:38.289Z,64.38
2023-01-08T17:49:05.804Z,65.46
2023-01-08T17:51:33.638Z,64.64
2023-01-08T17:54:01.034Z,63.74
2023-01-08T17:56:28.136Z,64.16
2023-01-08T17:58:55.077Z,64.94
2023-01-08T18:01:22.266Z,64.79
2023-01-08T18:03:49.730Z,65.31
2023-01-08T18:06:16.718Z,66.36
2023-01-08T18:08:43.577Z,66.55
2023-01-08T18:11:10.874Z,68.39
2023-01-08T18:13:38.036Z,68.01
2023-01-08T18:16:07.387Z,68.71
2023-01-08T18:18:35.282Z,69.01
2023-01-08T18:21:02.170Z,68.70
2023-01-08T18:23:29.067Z,67.49
2023-01-08T18:25:55.964Z,67.53
2023-01-08T18:28:23.140Z,68.25
2023-01-08T18:30:50.479Z,66.59
2023-01-08T18:33:17.386Z,67.45
2023-01-08T18:35:44.665Z,67.32
2023-01-08T18:38:15.897Z,67.91
2023-01-08T18:40:43.655Z,68.25
2023-01-08T18:43:11.534Z,67.64
2023-01-08T18:45:39.671Z,67.15
2023-01-08T18:48:07.949Z,68.23
2023-01-08T18:50:34.879Z,68.62
2023-01-08T18:53:04.699Z,68.39
2023-01-08T18:55:31.752Z,68.60
2023-01-08T18:57:58.605Z,66.59
2023-01-08T19:00:26.547Z,68.98
2023-01-08T19:02:53.894Z,69.04
2023-01-08T19:05:20.871Z,66.72
2023-01-08T19:07:47.744Z,65.90
2023-01-08T19:10:14.892Z,66.07
2023-01-08T19:12:41.770Z,64.64
2023-01-08T19:15:09.091Z,64.59
2023-01-08T19:17:36.122Z,65.47
2023-01-08T19:20:03.731Z,65.74
2023-01-08T19:22:32.693Z,61.85
2023-01-08T19:24:59.863Z,64.17
2023-01-08T19:27:26.835Z,63.39
2023-01-08T19:29:53.767Z,63.20
2023-01-08T19:32:20.637Z,63.37
2023-01-08T19:34:47.620Z,62.99
2023-01-08T19:37:15.190Z,62.83
2023-01-08T19:39:42.107Z,62.69
2023-01-08T19:42:29.342Z,61.61
2023-01-08T19:44:56.973Z,63.79
2023-01-08T19:47:24.802Z,65.50
2023-01-08T19:49:51.679Z,64.49
2023-01-08T19:52:18.700Z,63.46
2023-01-08T19:54:46.028Z,65.77
2023-01-08T19:57:13.141Z,66.55
2023-01-08T19:59:40.037Z,67.50
2023-01-08T20:02:09.364Z,67.50
2023-01-08T20:04:46.228Z,66.36
2023-01-08T20:07:13.903Z,64.38
2023-01-08T20:09:41.942Z,64.10
2023-01-08T20:12:09.053Z,63.52
2023-01-08T20:14:35.973Z,62.72
2023-01-08T20:17:02.927Z,68.73
2023-01-08T20:19:30.796Z,72.04
2023-01-08T20:21:59.096Z,71.66
2023-01-08T20:24:25.970Z,71.23
2023-01-08T20:26:52.807Z,70.39
2023-01-08T20:29:19.498Z,71.20
2023-01-08T20:31:46.377Z,70.97
2023-01-08T20:34:15.858Z,72.69
2023-01-08T20:36:44.185Z,72.38
2023-01-08T20:39:14.361Z,71.93
2023-01-08T20:41:50.229Z,71.33
2023-01-08T20:44:28.340Z,70.65
2023-01-08T20:46:55.198Z,71.32
2023-01-08T20:49:22.091Z,69.50
2023-01-08T20:51:57.862Z,68.63
2023-01-08T20:54:26.115Z,69.18
2023-01-08T20:56:55.438Z,67.58
2023-01-08T20:59:24.199Z,68.92
2023-01-08T21:01:51.296Z,70.24
2023-01-08T21:04:18.667Z,67.91
2023-01-08T21:06:46.059Z,67.15
2023-01-08T21:09:14.210Z,68.27
2023-01-08T21:11:41.428Z,66.67
2023-01-08T21:14:08.744Z,65.35
2023-01-08T21:16:36.659Z,66.88
2023-01-08T21:19:04.127Z,66.36
2023-01-08T21:21:36.533Z,66.50
2023-01-08T21:24:05.879Z,65.28
2023-01-08T21:26:34.037Z,66.46
2023-01-08T21:29:03.240Z,67.12
2023-01-08T21:31:30.678Z,65.50
2023-01-08T21:33:58.951Z,66.59
2023-01-08T21:36:27.705Z,65.52
2023-01-08T21:38:56.803Z,65.59
2023-01-08T21:41:43.712Z,66.20
2023-01-08T21:44:34.276Z,65.94
2023-01-08T21:47:02.754Z,66.41
2023-01-08T21:49:30.135Z,65.64
2023-01-08T21:52:15.480Z,65.64
2023-01-08T21:54:42.402Z,66.49
2023-01-08T21:57:09.977Z,66.66
2023-01-08T21:59:36.932Z,66.07
2023-01-08T22:02:04.644Z,65.07
2023-01-08T22:04:31.780Z,65.40
2023-01-08T22:06:59.183Z,65.18
2023-01-08T22:09:26.100Z,65.21
2023-01-08T22:11:54.940Z,64.58
2023-01-08T22:14:21.991Z,65.31
2023-01-08T22:16:48.870Z,66.46
2023-01-08T22:19:15.782Z,65.74
2023-01-08T22:21:42.737Z,66.09
2023-01-08T22:24:09.676Z,65.58
2023-01-08T22:26:36.548Z,65.21
2023-01-08T22:29:06.081Z,65.52
2023-01-08T22:31:33.605Z,66.68
2023-01-08T22:34:00.803Z,66.82
2023-01-08T22:36:27.886Z,66.05
2023-01-08T22:38:54.803Z,65.99
2023-01-08T22:41:24.257Z,64.71
2023-01-08T22:43:56.689Z,67.09
2023-01-08T22:46:24.724Z,66.37
2023-01-08T22:48:51.685Z,66.82
2023-01-08T22:51:27.249Z,67.17
2023-01-08T22:53:55.407Z,68.91
2023-01-08T22:56:22.348Z,68.29
2023-01-08T22:58:49.269Z,67.79
2023-01-08T23:01:27.534Z,68.69
2023-01-08T23:04:00.435Z,67.73
2023-01-08T23:06:29.228Z,68.65
2023-01-08T23:08:56.723Z,68.20
2023-01-08T23:11:24.510Z,68.87
2023-01-08T23:13:52.024Z,69.31
2023-01-08T23:16:22.991Z,68.49
2023-01-08T23:18:51.308Z,70.21
2023-01-08T23:21:20.513Z,68.63
2023-01-08T23:23:47.409Z,68.82
2023-01-08T23:26:16.273Z,67.13
2023-01-08T23:28:43.249Z,68.33
2023-01-08T23:31:15.612Z,67.99
2023-01-08T23:33:42.549Z,66.53
2023-01-08T23:36:09.954Z,67.28
2023-01-08T23:38:36.867Z,65.62
2023-01-08T23:41:06.769Z,67.34
2023-01-08T23:43:33.631Z,66.46
2023-01-08T23:46:04.058Z,69.22
2023-01-08T23:48:31.152Z,68.75
2023-01-08T23:50:58.202Z,70.11
2023-01-08T23:53:25.168Z,68.70
2023-01-08T23:55:52.128Z,69.51
2023-01-08T23:58:18.998Z,70.17
